createdAt,value
2022-11-02T00:01:58.916Z,19.33
2022-11-02T00:04:25.612Z,20.13
2022-11-02T00:06:52.255Z,19.35
2022-11-02T00:09:18.903Z,19.95
2022-11-02T00:11:45.555Z,18.02
2022-11-02T00:14:12.237Z,17.55
2022-11-02T00:16:40.199Z,18.70
2022-11-02T00:19:07.689Z,17.83
2022-11-02T00:21:35.135Z,17.20
2022-11-02T00:24:01.910Z,18.35
2022-11-02T00:26:29.334Z,16.92
2022-11-02T00:28:55.967Z,17.88
2022-11-02T00:31:22.634Z,17.52
2022-11-02T00:33:49.276Z,17.50
2022-11-02T00:36:15.992Z,17.17
2022-11-02T00:38:42.694Z,17.13
2022-11-02T00:41:09.367Z,19.77
2022-11-02T00:43:36.063Z,18.42
2022-11-02T00:46:02.668Z,18.10
2022-11-02T00:48:29.345Z,18.25
2022-11-02T00:50:56.127Z,17.33
2022-11-02T00:53:22.837Z,18.38
2022-11-02T00:55:49.478Z,16.52
2022-11-02T00:58:16.195Z,16.83
2022-11-02T01:00:42.852Z,16.98
2022-11-02T01:03:09.476Z,17.17
2022-11-02T01:05:37.029Z,17.52
2022-11-02T01:08:04.557Z,17.65
2022-11-02T01:10:31.708Z,16.52
2022-11-02T01:13:01.034Z,16.65
2022-11-02T01:15:27.832Z,16.90
2022-11-02T01:17:54.576Z,18.55
2022-11-02T01:20:21.273Z,18.42
2022-11-02T01:22:47.894Z,17.90
2022-11-02T01:25:14.599Z,19.10
2022-11-02T01:27:41.321Z,19.55
2022-11-02T01:30:08.354Z,18.15
2022-11-02T01:32:35.050Z,18.92
2022-11-02T01:35:02.931Z,19.10
2022-11-02T01:37:29.668Z,18.27
2022-11-02T01:39:56.367Z,18.85
2022-11-02T01:42:25.174Z,18.65
2022-11-02T01:44:51.882Z,18.13
2022-11-02T01:47:22.943Z,17.33
2022-11-02T01:49:52.738Z,18.75
2022-11-02T01:52:22.728Z,18.67
2022-11-02T01:54:54.391Z,20.05
2022-11-02T01:57:22.418Z,19.17
2022-11-02T02:00:03.900Z,19.55
2022-11-02T02:02:30.650Z,19.08
2022-11-02T02:05:06.731Z,17.73
2022-11-02T02:07:35.301Z,17.55
2022-11-02T02:10:02.068Z,17.90
2022-11-02T02:12:29.424Z,18.02
2022-11-02T02:14:56.140Z,18.48
2022-11-02T02:17:53.681Z,18.45
2022-11-02T02:20:39.593Z,18.33
2022-11-02T02:23:27.882Z,18.20
2022-11-02T02:26:36.698Z,19.27
2022-11-02T02:29:14.773Z,19.20
2022-11-02T02:32:07.709Z,18.45
2022-11-02T02:34:39.108Z,18.13
2022-11-02T02:37:10.105Z,18.00
2022-11-02T02:39:42.307Z,17.45
2022-11-02T02:42:34.102Z,17.88
2022-11-02T02:45:21.242Z,18.08
2022-11-02T02:48:08.226Z,18.02
2022-11-02T02:50:39.723Z,17.90
2022-11-02T02:53:07.363Z,17.08
2022-11-02T02:55:40.290Z,18.08
2022-11-02T02:58:08.352Z,15.57
2022-11-02T03:00:36.305Z,17.05
2022-11-02T03:03:04.319Z,20.25
2022-11-02T03:05:36.317Z,22.23
2022-11-02T03:08:13.787Z,21.42
2022-11-02T03:10:48.321Z,19.88
2022-11-02T03:13:33.826Z,18.65
2022-11-02T03:16:09.359Z,17.90
2022-11-02T03:18:48.003Z,16.50
2022-11-02T03:21:22.718Z,17.40
2022-11-02T03:24:27.826Z,16.52
2022-11-02T03:27:26.495Z,18.35
2022-11-02T03:29:58.697Z,16.42
2022-11-02T03:32:37.101Z,16.63
2022-11-02T03:35:07.503Z,16.00
2022-11-02T03:37:45.473Z,15.80
2022-11-02T03:40:16.864Z,15.32
2022-11-02T03:42:44.196Z,14.43
2022-11-02T03:45:14.947Z,14.68
2022-11-02T03:47:44.924Z,15.25
2022-11-02T03:50:12.507Z,14.05
2022-11-02T03:52:41.583Z,13.10
2022-11-02T03:55:09.747Z,12.98
2022-11-02T03:57:41.454Z,13.75
2022-11-02T04:00:13.235Z,12.60
2022-11-02T04:02:41.590Z,11.95
2022-11-02T04:05:09.015Z,11.65
2022-11-02T04:07:58.454Z,15.98
2022-11-02T04:10:26.280Z,25.38
2022-11-02T04:13:11.735Z,27.45
2022-11-02T04:15:38.357Z,10.85
2022-11-02T04:18:23.690Z,14.82
2022-11-02T04:20:51.287Z,17.80
2022-11-02T04:23:37.041Z,11.40
2022-11-02T04:26:04.786Z,10.23
2022-11-02T04:28:31.653Z,10.23
2022-11-02T04:30:59.827Z,12.38
2022-11-02T04:33:32.953Z,16.65
2022-11-02T04:36:04.012Z,12.45
2022-11-02T04:38:43.105Z,15.23
2022-11-02T04:41:49.236Z,13.10
2022-11-02T04:44:16.113Z,12.57
2022-11-02T04:46:44.231Z,13.52
2022-11-02T04:49:11.588Z,12.77
2022-11-02T04:51:41.108Z,14.27
2022-11-02T04:54:10.113Z,14.98
2022-11-02T04:56:36.807Z,17.52
2022-11-02T04:59:03.544Z,22.33
2022-11-02T05:01:30.846Z,23.35
2022-11-02T05:03:57.945Z,24.42
2022-11-02T05:06:25.145Z,26.70
2022-11-02T05:08:51.879Z,33.55
2022-11-02T05:11:18.786Z,63.80
2022-11-02T05:13:45.919Z,44.67
2022-11-02T05:16:15.428Z,50.70
2022-11-02T05:18:42.701Z,60.40
2022-11-02T05:21:10.851Z,81.00
2022-11-02T05:23:38.588Z,89.35
2022-11-02T05:26:11.011Z,53.08
2022-11-02T05:28:37.681Z,74.57
2022-11-02T05:31:04.691Z,76.43
2022-11-02T05:33:31.887Z,63.20
2022-11-02T05:35:59.357Z,62.85
2022-11-02T05:38:26.946Z,66.95
2022-11-02T05:40:54.825Z,58.67
2022-11-02T05:43:21.803Z,68.85
2022-11-02T05:45:55.383Z,56.85
2022-11-02T05:48:22.911Z,56.65
2022-11-02T05:50:49.594Z,50.35
2022-11-02T05:53:16.375Z,49.67
2022-11-02T05:55:42.996Z,47.35
2022-11-02T05:58:09.736Z,46.08
2022-11-02T06:00:36.427Z,44.20
2022-11-02T06:03:03.374Z,47.17
2022-11-02T06:05:30.360Z,39.47
2022-11-02T06:08:01.386Z,35.65
2022-11-02T06:10:29.346Z,34.42
2022-11-02T06:13:01.114Z,33.63
2022-11-02T06:15:28.937Z,36.22
2022-11-02T06:17:55.648Z,32.45
2022-11-02T06:20:22.629Z,32.55
2022-11-02T06:22:49.900Z,30.85
2022-11-02T06:25:16.672Z,30.42
2022-11-02T06:27:55.122Z,32.55
2022-11-02T06:30:22.081Z,29.70
2022-11-02T06:32:49.376Z,27.45
2022-11-02T06:35:17.797Z,26.80
2022-11-02T06:37:45.376Z,24.65
2022-11-02T06:40:12.807Z,27.92
2022-11-02T06:42:45.384Z,27.42
2022-11-02T06:45:23.950Z,27.67
2022-11-02T06:47:51.031Z,27.63
2022-11-02T06:50:17.840Z,27.83
2022-11-02T06:52:45.536Z,27.38
2022-11-02T06:55:13.428Z,24.80
2022-11-02T06:57:40.816Z,28.17
2022-11-02T07:00:14.451Z,28.35
2022-11-02T07:02:47.713Z,28.25
2022-11-02T07:05:15.051Z,26.60
2022-11-02T07:07:41.668Z,26.65
2022-11-02T07:10:10.598Z,27.17
2022-11-02T07:12:37.325Z,27.35
2022-11-02T07:15:04.249Z,28.63
2022-11-02T07:17:32.338Z,31.73
2022-11-02T07:20:05.790Z,30.60
2022-11-02T07:22:38.795Z,30.27
2022-11-02T07:25:05.919Z,31.08
2022-11-02T07:27:34.600Z,29.58
2022-11-02T07:30:07.802Z,26.55
2022-11-02T07:32:44.460Z,26.45
2022-11-02T07:35:12.692Z,26.33
2022-11-02T07:37:39.699Z,27.85
2022-11-02T07:40:08.024Z,29.42
2022-11-02T07:42:35.354Z,28.70
2022-11-02T07:45:02.080Z,30.80
2022-11-02T07:47:30.283Z,35.35
2022-11-02T07:49:59.642Z,30.67
2022-11-02T07:52:26.268Z,30.52
2022-11-02T07:54:52.883Z,34.80
2022-11-02T07:57:19.824Z,31.70
2022-11-02T07:59:46.452Z,31.80
2022-11-02T08:02:13.810Z,31.80
2022-11-02T08:04:43.890Z,25.42
2022-11-02T08:07:12.640Z,28.08
2022-11-02T08:09:39.423Z,20.98
2022-11-02T08:12:06.432Z,21.95
2022-11-02T08:14:33.111Z,20.55
2022-11-02T08:16:59.730Z,18.60
2022-11-02T08:19:26.351Z,17.88
2022-11-02T08:21:53.068Z,17.60
2022-11-02T08:24:19.783Z,16.27
2022-11-02T08:26:47.565Z,15.70
2022-11-02T08:29:16.394Z,15.05
2022-11-02T08:31:43.025Z,13.05
2022-11-02T08:34:12.002Z,13.35
2022-11-02T08:39:05.373Z,13.18
2022-11-02T08:41:31.981Z,13.73
2022-11-02T08:43:59.106Z,13.50
2022-11-02T08:46:25.811Z,13.07
2022-11-02T08:48:52.518Z,15.88
2022-11-02T08:51:19.218Z,12.68
2022-11-02T08:53:51.213Z,11.75
2022-11-02T08:56:18.523Z,12.40
2022-11-02T08:58:45.184Z,12.50
2022-11-02T09:01:11.869Z,13.15
2022-11-02T09:03:38.575Z,13.18
2022-11-02T09:06:05.331Z,13.85
2022-11-02T09:08:33.321Z,13.77
2022-11-02T09:11:02.815Z,15.00
2022-11-02T09:13:29.739Z,12.98
2022-11-02T09:15:58.380Z,12.55
2022-11-02T09:18:25.023Z,13.43
2022-11-02T09:20:51.864Z,13.02
2022-11-02T09:23:20.516Z,12.55
2022-11-02T09:25:48.000Z,12.88
2022-11-02T09:28:15.672Z,14.48
2022-11-02T09:30:42.674Z,12.75
2022-11-02T09:33:10.173Z,12.27
2022-11-02T09:35:39.175Z,13.77
2022-11-02T09:38:05.839Z,13.38
2022-11-02T09:40:38.261Z,13.07
2022-11-02T09:43:19.408Z,12.85
2022-11-02T09:46:06.789Z,12.30
2022-11-02T09:48:49.763Z,12.55
2022-11-02T09:51:19.959Z,12.05
2022-11-02T09:54:17.296Z,11.82
2022-11-02T09:56:45.299Z,11.88
2022-11-02T09:59:17.695Z,10.55
2022-11-02T10:02:03.738Z,10.15
2022-11-02T10:05:21.200Z,10.60
2022-11-02T10:08:23.624Z,10.13
2022-11-02T10:10:54.304Z,9.57
2022-11-02T10:13:44.108Z,9.27
2022-11-02T10:16:19.847Z,9.00
2022-11-02T10:18:50.320Z,8.10
2022-11-02T10:21:31.708Z,7.50
2022-11-02T10:24:01.689Z,7.53
2022-11-02T10:26:30.081Z,8.15
2022-11-02T10:29:03.685Z,7.85
2022-11-02T10:31:32.706Z,8.63
2022-11-02T10:34:19.021Z,8.23
2022-11-02T10:36:55.729Z,7.75
2022-11-02T10:39:22.393Z,8.23
2022-11-02T10:41:54.502Z,7.68
2022-11-02T10:44:31.168Z,7.55
2022-11-02T10:47:20.642Z,6.68
2022-11-02T10:50:15.034Z,7.47
2022-11-02T10:52:43.960Z,6.32
2022-11-02T10:55:27.539Z,5.95
2022-11-02T10:57:56.075Z,6.18
2022-11-02T11:00:34.153Z,6.43
2022-11-02T11:03:16.622Z,6.10
2022-11-02T11:05:56.381Z,5.40
2022-11-02T11:08:32.113Z,5.82
2022-11-02T11:11:15.773Z,6.47
2022-11-02T11:16:38.623Z,5.93
2022-11-02T11:21:53.488Z,7.32
2022-11-02T11:24:31.709Z,7.65
2022-11-02T11:27:04.466Z,7.07
2022-11-02T11:29:33.704Z,6.22
2022-11-02T11:32:01.637Z,6.57
2022-11-02T11:34:33.780Z,5.85
2022-11-02T11:37:14.982Z,6.38
2022-11-02T11:39:44.207Z,6.78
2022-11-02T11:42:21.925Z,7.38
2022-11-02T11:45:00.278Z,6.45
2022-11-02T11:47:29.838Z,6.90
2022-11-02T11:50:17.703Z,8.63
2022-11-02T11:52:44.589Z,6.72
2022-11-02T11:55:31.929Z,6.90
2022-11-02T11:58:06.939Z,6.35
2022-11-02T12:00:34.623Z,6.70
2022-11-02T12:03:07.414Z,6.00
2022-11-02T12:05:50.458Z,6.32
2022-11-02T12:08:44.676Z,6.32
2022-11-02T12:11:26.272Z,6.07
2022-11-02T12:13:58.138Z,5.80
2022-11-02T12:16:34.000Z,6.05
2022-11-02T12:19:21.366Z,6.85
2022-11-02T12:22:24.376Z,6.18
2022-11-02T12:24:56.915Z,6.32
2022-11-02T12:27:49.583Z,7.10
2022-11-02T12:30:19.315Z,6.97
2022-11-02T12:33:18.848Z,7.38
2022-11-02T12:36:02.299Z,7.38
2022-11-02T12:38:53.657Z,7.95
2022-11-02T12:41:30.048Z,6.93
2022-11-02T12:44:09.574Z,5.63
2022-11-02T12:46:48.566Z,6.95
2022-11-02T12:49:42.064Z,6.85
2022-11-02T12:52:33.712Z,5.95
2022-11-02T12:55:02.768Z,6.05
2022-11-02T12:57:33.616Z,5.65
2022-11-02T13:00:02.277Z,6.63
2022-11-02T13:05:13.805Z,7.03
2022-11-02T13:07:45.911Z,5.82
2022-11-02T13:10:18.129Z,7.00
2022-11-02T13:12:46.175Z,6.22
2022-11-02T13:15:20.862Z,5.22
2022-11-02T13:20:19.340Z,6.03
2022-11-02T13:23:08.583Z,5.88
2022-11-02T13:25:40.117Z,4.63
2022-11-02T13:28:14.224Z,4.85
2022-11-02T13:30:42.113Z,5.53
2022-11-02T13:33:16.527Z,5.55
2022-11-02T13:35:43.542Z,5.28
2022-11-02T13:38:13.046Z,4.47
2022-11-02T13:40:48.918Z,6.28
2022-11-02T13:43:33.705Z,6.47
2022-11-02T13:46:06.703Z,6.07
2022-11-02T13:48:40.540Z,6.10
2022-11-02T13:51:25.335Z,6.03
2022-11-02T13:54:19.009Z,6.05
2022-11-02T13:56:46.224Z,6.30
2022-11-02T13:59:43.107Z,7.57
2022-11-02T14:02:15.059Z,7.47
2022-11-02T14:04:42.585Z,6.53
2022-11-02T14:07:22.318Z,7.07
2022-11-02T14:09:48.993Z,6.70
2022-11-02T14:12:21.723Z,6.93
2022-11-02T14:15:12.774Z,6.43
2022-11-02T14:18:02.277Z,7.70
2022-11-02T14:20:32.244Z,6.65
2022-11-02T14:23:11.260Z,6.43
2022-11-02T14:25:47.025Z,6.93
2022-11-02T14:28:25.846Z,6.38
2022-11-02T14:30:55.558Z,6.60
2022-11-02T14:33:50.200Z,6.53
2022-11-02T14:36:16.820Z,6.88
2022-11-02T14:38:52.925Z,6.18
2022-11-02T14:41:23.722Z,6.30
2022-11-02T14:44:00.240Z,16.10
2022-11-02T14:46:51.227Z,7.18
2022-11-02T14:49:29.773Z,7.05
2022-11-02T14:52:04.224Z,7.85
2022-11-02T14:54:53.767Z,8.02
2022-11-02T14:57:38.444Z,8.02
2022-11-02T15:00:17.023Z,10.05
2022-11-02T15:02:43.913Z,8.82
2022-11-02T15:05:23.133Z,8.65
2022-11-02T15:07:53.229Z,8.55
2022-11-02T15:10:22.580Z,9.20
2022-11-02T15:12:49.614Z,15.50
2022-11-02T15:15:36.387Z,9.32
2022-11-02T15:18:28.156Z,7.25
2022-11-02T15:21:10.321Z,7.97
2022-11-02T15:23:55.698Z,8.52
2022-11-02T15:26:35.565Z,10.73
2022-11-02T15:29:07.235Z,10.45
2022-11-02T15:31:34.908Z,8.75
2022-11-02T15:34:12.297Z,14.57
2022-11-02T15:36:39.718Z,12.10
2022-11-02T15:39:11.126Z,9.70
2022-11-02T15:42:05.368Z,8.70
2022-11-02T15:45:05.407Z,13.95
2022-11-02T15:47:46.773Z,13.18
2022-11-02T15:50:19.561Z,17.92
2022-11-02T15:53:22.182Z,10.23
2022-11-02T15:55:59.390Z,8.95
2022-11-02T15:58:33.493Z,15.15
2022-11-02T16:01:19.454Z,12.13
2022-11-02T16:03:58.286Z,14.23
2022-11-02T16:06:33.879Z,14.35
2022-11-02T16:09:01.543Z,12.10
2022-11-02T16:11:28.844Z,16.98
2022-11-02T16:14:15.866Z,15.63
2022-11-02T16:16:49.752Z,12.95
2022-11-02T16:19:19.465Z,14.52
2022-11-02T16:21:46.484Z,12.82
2022-11-02T16:24:13.399Z,13.88
2022-11-02T16:26:42.441Z,18.05
2022-11-02T16:29:10.219Z,21.27
2022-11-02T16:31:36.965Z,21.02
2022-11-02T16:34:31.177Z,16.55
2022-11-02T16:36:58.134Z,16.95
2022-11-02T16:39:36.602Z,19.13
2022-11-02T16:42:10.005Z,21.48
2022-11-02T16:44:36.778Z,17.88
2022-11-02T16:47:12.354Z,21.25
2022-11-02T16:49:51.083Z,26.70
2022-11-02T16:52:26.050Z,26.15
2022-11-02T16:54:52.719Z,21.38
2022-11-02T16:57:25.103Z,24.23
2022-11-02T16:59:54.213Z,21.75
2022-11-02T17:02:31.893Z,27.75
2022-11-02T17:05:02.615Z,23.42
2022-11-02T17:07:39.206Z,24.33
2022-11-02T17:10:07.585Z,22.17
2022-11-02T17:12:39.407Z,26.38
2022-11-02T17:15:23.684Z,19.73
2022-11-02T17:17:50.739Z,16.35
2022-11-02T17:20:22.964Z,17.80
2022-11-02T17:23:01.545Z,17.15
2022-11-02T17:25:33.492Z,15.10
2022-11-02T17:28:02.502Z,18.60
2022-11-02T17:30:35.373Z,15.10
2022-11-02T17:33:24.832Z,23.83
2022-11-02T17:35:53.356Z,25.13
2022-11-02T17:38:26.652Z,13.02
2022-11-02T17:40:54.034Z,14.10
2022-11-02T17:43:21.900Z,13.73
2022-11-02T17:46:00.967Z,12.02
2022-11-02T17:48:31.292Z,7.80
2022-11-02T17:51:00.020Z,10.30
2022-11-02T17:53:27.070Z,11.25
2022-11-02T17:55:54.512Z,10.27
2022-11-02T17:58:21.220Z,10.38
2022-11-02T18:00:47.986Z,16.85
2022-11-02T18:03:17.511Z,13.63
2022-11-02T18:05:48.348Z,14.10
2022-11-02T18:08:16.993Z,15.75
2022-11-02T18:10:45.292Z,19.83
2022-11-02T18:13:16.398Z,17.70
2022-11-02T18:15:43.429Z,19.58
2022-11-02T18:18:10.387Z,19.42
2022-11-02T18:20:41.505Z,22.02
2022-11-02T18:23:15.089Z,20.30
2022-11-02T18:25:41.739Z,21.98
2022-11-02T18:28:08.672Z,23.67
2022-11-02T18:30:35.403Z,27.15
2022-11-02T18:33:02.999Z,18.17
2022-11-02T18:35:29.798Z,15.73
2022-11-02T18:37:56.761Z,21.17
2022-11-02T18:40:23.515Z,26.33
2022-11-02T18:42:50.167Z,29.73
2022-11-02T18:45:16.988Z,20.92
2022-11-02T18:47:43.836Z,20.08
2022-11-02T18:50:11.998Z,22.85
2022-11-02T18:52:38.854Z,18.73
2022-11-02T18:55:05.973Z,17.20
2022-11-02T18:57:33.232Z,27.75
2022-11-02T19:00:02.553Z,20.67
2022-11-02T19:02:29.560Z,17.42
2022-11-02T19:04:56.373Z,18.55
2022-11-02T19:07:41.894Z,21.08
2022-11-02T19:10:09.011Z,21.08
2022-11-02T19:12:35.982Z,16.70
2022-11-02T19:15:02.817Z,24.85
2022-11-02T19:17:29.604Z,22.80
2022-11-02T19:19:56.600Z,18.02
2022-11-02T19:22:26.579Z,25.08
2022-11-02T19:24:53.525Z,20.83
2022-11-02T19:27:22.257Z,24.48
2022-11-02T19:29:49.076Z,19.50
2022-11-02T19:32:16.102Z,22.65
2022-11-02T19:34:45.744Z,21.65
2022-11-02T19:37:13.029Z,21.02
2022-11-02T19:39:39.860Z,23.85
2022-11-02T19:42:07.576Z,29.48
2022-11-02T19:44:39.629Z,18.38
2022-11-02T19:47:09.376Z,27.05
2022-11-02T19:49:36.049Z,23.65
2022-11-02T19:52:02.723Z,24.35
2022-11-02T19:54:29.344Z,27.08
2022-11-02T19:56:56.016Z,23.27
2022-11-02T19:59:22.706Z,20.48
2022-11-02T20:01:50.821Z,21.17
2022-11-02T20:04:17.821Z,26.30
2022-11-02T20:06:44.922Z,20.02
2022-11-02T20:09:16.936Z,21.58
2022-11-02T20:11:44.774Z,22.77
2022-11-02T20:14:12.841Z,19.85
2022-11-02T20:16:39.746Z,15.15
2022-11-02T20:19:06.815Z,15.75
2022-11-02T20:21:38.285Z,22.65
2022-11-02T20:24:09.573Z,23.40
2022-11-02T20:26:37.460Z,21.60
2022-11-02T20:29:05.171Z,22.50
2022-11-02T20:31:37.244Z,21.52
2022-11-02T20:34:06.535Z,24.35
2022-11-02T20:36:34.692Z,22.10
2022-11-02T20:39:04.237Z,18.83
2022-11-02T20:41:31.072Z,17.90
2022-11-02T20:43:57.778Z,18.67
2022-11-02T20:46:43.281Z,16.05
2022-11-02T20:49:21.991Z,18.45
2022-11-02T20:51:58.723Z,17.55
2022-11-02T20:54:26.630Z,20.55
2022-11-02T20:56:53.261Z,17.27
2022-11-02T20:59:19.886Z,18.25
2022-11-02T21:01:46.637Z,18.48
2022-11-02T21:04:19.688Z,20.67
2022-11-02T21:06:47.932Z,18.88
2022-11-02T21:09:14.633Z,18.08
2022-11-02T21:11:59.680Z,19.55
2022-11-02T21:14:26.333Z,18.42
2022-11-02T21:16:52.998Z,19.98
2022-11-02T21:19:19.706Z,20.70
2022-11-02T21:21:46.339Z,27.00
2022-11-02T21:24:13.013Z,20.80
2022-11-02T21:26:39.627Z,20.70
2022-11-02T21:29:06.320Z,18.45
2022-11-02T21:31:32.970Z,20.63
2022-11-02T21:33:59.659Z,16.77
2022-11-02T21:36:26.297Z,18.50
2022-11-02T21:38:53.018Z,16.50
2022-11-02T21:41:22.192Z,17.25
2022-11-02T21:43:52.040Z,14.75
2022-11-02T21:46:19.929Z,16.35
2022-11-02T21:48:46.758Z,17.13
2022-11-02T21:51:18.868Z,16.95
2022-11-02T21:53:46.586Z,13.50
2022-11-02T21:56:14.697Z,15.90
2022-11-02T21:58:44.851Z,17.27
2022-11-02T22:01:45.356Z,15.15
2022-11-02T22:04:19.640Z,13.98
2022-11-02T22:06:46.370Z,14.38
2022-11-02T22:09:13.412Z,18.63
2022-11-02T22:11:40.527Z,20.95
2022-11-02T22:14:07.194Z,20.95
2022-11-02T22:16:38.954Z,19.05
2022-11-02T22:19:07.643Z,23.70
2022-11-02T22:21:36.631Z,20.17
2022-11-02T22:24:04.259Z,27.42
2022-11-02T22:26:31.904Z,22.60
2022-11-02T22:29:00.956Z,23.63
2022-11-02T22:31:39.895Z,27.08
2022-11-02T22:34:08.297Z,26.15
2022-11-02T22:36:35.420Z,23.67
2022-11-02T22:39:05.784Z,20.38
2022-11-02T22:41:39.216Z,21.73
2022-11-02T22:44:11.161Z,20.80
2022-11-02T22:46:39.847Z,20.23
2022-11-02T22:49:07.780Z,20.65
2022-11-02T22:51:40.251Z,20.38
2022-11-02T22:54:09.113Z,14.93
2022-11-02T22:56:36.053Z,15.50
2022-11-02T22:59:03.508Z,14.05
2022-11-02T23:01:31.084Z,9.25
2022-11-02T23:03:58.466Z,8.98
2022-11-02T23:06:25.659Z,9.48
2022-11-02T23:08:53.695Z,11.50
2022-11-02T23:11:23.258Z,9.02
2022-11-02T23:13:56.682Z,8.77
2022-11-02T23:16:34.646Z,10.82
2022-11-02T23:19:27.628Z,11.88
2022-11-02T23:22:21.031Z,10.93
2022-11-02T23:25:12.875Z,13.00
2022-11-02T23:28:16.984Z,11.02
2022-11-02T23:31:02.458Z,11.43
2022-11-02T23:33:31.024Z,14.20
2022-11-02T23:36:12.418Z,13.40
2022-11-02T23:38:58.453Z,15.30
2022-11-02T23:41:25.596Z,15.77
2022-11-02T23:44:11.327Z,16.70
2022-11-02T23:46:39.320Z,56.17
2022-11-02T23:49:05.999Z,201.20
2022-11-02T23:51:51.227Z,144.05
2022-11-02T23:54:36.780Z,162.82
2022-11-02T23:57:03.481Z,222.07
2022-11-02T23:59:30.139Z,225.35
